createdAt,value
2019-04-14T00:01:39.145Z,102128.47
2019-04-14T00:04:48.693Z,102124.62
2019-04-14T00:08:41.486Z,102121.25
2019-04-14T00:11:50.466Z,102130.56
2019-04-14T00:15:25.952Z,102125.48
2019-04-14T00:18:44.780Z,102122.52
2019-04-14T00:22:11.687Z,102120.39
2019-04-14T00:25:47.678Z,102114.04
2019-04-14T00:29:23.884Z,102111.52
2019-04-14T00:32:50.947Z,102109.38
2019-04-14T00:36:26.514Z,102108.09
2019-04-14T00:39:53.286Z,102105.55
2019-04-14T00:43:19.978Z,102106.39
2019-04-14T00:46:47.462Z,102104.69
2019-04-14T00:50:14.694Z,102100.89
2019-04-14T00:53:51.311Z,102105.14
2019-04-14T00:57:18.080Z,102106.81
2019-04-14T01:00:45.139Z,102101.75
2019-04-14T01:04:20.911Z,102097.89
2019-04-14T01:07:57.037Z,102099.19
2019-04-14T01:11:29.119Z,102095.81
2019-04-14T01:14:36.615Z,102103.00
2019-04-14T01:17:43.958Z,102101.72
2019-04-14T01:20:51.445Z,102101.72
2019-04-14T01:24:08.139Z,102095.36
2019-04-14T01:27:25.631Z,102106.34
2019-04-14T01:30:32.827Z,102108.04
2019-04-14T01:33:40.185Z,102115.23
2019-04-14T01:36:47.577Z,102113.16
2019-04-14T01:39:54.956Z,102104.23
2019-04-14T01:43:02.293Z,102104.66
2019-04-14T01:46:17.745Z,102108.05
2019-04-14T01:49:18.538Z,102106.34
2019-04-14T01:52:45.783Z,102100.86
2019-04-14T01:56:06.447Z,102110.61
2019-04-14T01:59:13.727Z,102110.20
2019-04-14T02:02:22.685Z,102115.23
2019-04-14T02:05:39.311Z,102124.19
2019-04-14T02:08:47.708Z,102117.38
2019-04-14T02:11:55.292Z,102117.38
2019-04-14T02:15:02.851Z,102120.33
2019-04-14T02:18:20.701Z,102115.27
2019-04-14T02:21:28.198Z,102114.84
2019-04-14T02:24:46.005Z,102110.60
2019-04-14T02:27:53.713Z,102111.84
2019-04-14T02:31:13.105Z,102109.73
2019-04-14T02:34:49.611Z,102102.98
2019-04-14T02:38:02.260Z,102108.89
2019-04-14T02:41:02.777Z,102102.96
2019-04-14T02:44:24.224Z,102110.16
2019-04-14T02:47:56.735Z,102109.77
2019-04-14T02:50:56.178Z,102102.53
2019-04-14T02:54:23.102Z,102109.77
2019-04-14T02:57:47.330Z,102108.09
2019-04-14T03:00:58.292Z,102118.68
2019-04-14T03:04:04.128Z,102115.27
2019-04-14T03:07:30.366Z,102122.91
2019-04-14T03:14:01.244Z,102132.67
2019-04-14T03:21:01.507Z,102129.72
2019-04-14T03:24:32.706Z,102132.69
2019-04-14T03:28:12.498Z,102124.64
2019-04-14T03:31:52.019Z,102122.09
2019-04-14T03:34:59.161Z,102124.22
2019-04-14T03:38:08.493Z,102130.14
2019-04-14T03:41:24.094Z,102127.17
2019-04-14T03:44:41.475Z,102132.27
2019-04-14T03:48:19.035Z,102137.35
2019-04-14T03:51:16.690Z,102135.23
2019-04-14T03:54:19.095Z,102136.52
2019-04-14T03:57:06.217Z,102134.39
2019-04-14T04:00:13.899Z,102137.77
2019-04-14T04:03:21.838Z,102139.47
2019-04-14T04:06:38.297Z,102126.34
2019-04-14T04:09:51.881Z,102129.73
2019-04-14T04:13:12.771Z,102133.95
2019-04-14T04:16:41.937Z,102137.33
2019-04-14T04:19:57.752Z,102142.03
2019-04-14T04:23:38.263Z,102139.92
2019-04-14T04:27:03.212Z,102145.84
2019-04-14T04:30:25.412Z,102138.64
2019-04-14T04:34:09.786Z,102143.29
2019-04-14T04:37:45.454Z,102142.03
2019-04-14T04:41:12.593Z,102137.79
2019-04-14T04:44:29.262Z,102139.07
2019-04-14T04:47:36.664Z,102147.12
2019-04-14T04:50:54.227Z,102144.14
2019-04-14T04:54:01.757Z,102147.11
2019-04-14T04:57:08.985Z,102151.36
2019-04-14T05:00:16.257Z,102149.23
2019-04-14T05:03:23.453Z,102153.91
2019-04-14T05:07:09.796Z,102153.48
2019-04-14T05:10:24.462Z,102161.97
2019-04-14T05:13:36.129Z,102156.00
2019-04-14T05:16:44.022Z,102161.96
2019-04-14T05:20:00.818Z,102164.08
2019-04-14T05:23:17.351Z,102165.77
2019-04-14T05:26:35.121Z,102162.39
2019-04-14T05:29:43.018Z,102165.36
2019-04-14T05:33:00.853Z,102161.52
2019-04-14T05:36:08.550Z,102164.06
2019-04-14T05:39:26.452Z,102170.45
2019-04-14T05:42:34.110Z,102167.91
2019-04-14T05:45:41.678Z,102170.44
2019-04-14T05:48:58.138Z,102171.70
2019-04-14T05:52:16.248Z,102178.92
2019-04-14T05:55:24.199Z,102185.27
2019-04-14T05:58:40.478Z,102182.73
2019-04-14T06:01:57.282Z,102180.16
2019-04-14T06:05:14.525Z,102177.62
2019-04-14T06:08:21.047Z,102191.22
2019-04-14T06:11:27.542Z,102188.68
2019-04-14T06:14:34.164Z,102189.50
2019-04-14T06:17:40.564Z,102186.53
2019-04-14T06:20:47.083Z,102187.38
2019-04-14T06:23:53.572Z,102187.41
2019-04-14T06:27:00.235Z,102195.43
2019-04-14T06:30:22.147Z,102195.44
2019-04-14T06:33:34.290Z,102193.73
2019-04-14T06:36:58.705Z,102192.02
2019-04-14T06:40:06.710Z,102197.95
2019-04-14T06:43:13.863Z,102200.91
2019-04-14T06:46:21.095Z,102198.36
2019-04-14T06:49:28.244Z,102204.25
2019-04-14T06:52:35.568Z,102208.95
2019-04-14T06:55:42.827Z,102216.55
2019-04-14T07:03:12.623Z,102216.48
2019-04-14T07:06:29.206Z,102209.23
2019-04-14T07:09:36.518Z,102219.45
2019-04-14T07:12:53.211Z,102212.56
2019-04-14T07:16:00.353Z,102211.70
2019-04-14T07:19:07.685Z,102204.05
2019-04-14T07:22:24.390Z,102208.23
2019-04-14T07:25:31.627Z,102209.08
2019-04-14T07:28:38.815Z,102213.39
2019-04-14T07:32:05.051Z,102211.60
2019-04-14T07:35:30.284Z,102220.20
2019-04-14T07:39:25.725Z,102214.48
2019-04-14T07:43:04.086Z,102217.45
2019-04-14T07:46:57.005Z,102217.05
2019-04-14T07:50:30.435Z,102228.48
2019-04-14T07:54:02.767Z,102225.02
2019-04-14T07:57:12.527Z,102226.66
2019-04-14T08:00:41.956Z,102231.67
2019-04-14T08:04:14.513Z,102230.83
2019-04-14T08:07:39.835Z,102233.84
2019-04-14T08:10:56.660Z,102232.12
2019-04-14T08:14:13.341Z,102237.55
2019-04-14T08:17:20.655Z,102244.30
2019-04-14T08:20:37.435Z,102243.41
2019-04-14T08:23:54.196Z,102239.61
2019-04-14T08:27:01.641Z,102238.66
2019-04-14T08:30:18.184Z,102239.03
2019-04-14T08:33:34.963Z,102229.30
2019-04-14T08:36:42.820Z,102238.75
2019-04-14T08:39:49.590Z,102230.60
2019-04-14T08:43:26.321Z,102236.05
2019-04-14T08:46:43.001Z,102237.32
2019-04-14T08:50:14.996Z,102231.28
2019-04-14T08:53:50.136Z,102232.48
2019-04-14T08:57:03.997Z,102230.02
2019-04-14T09:00:14.390Z,102234.34
2019-04-14T09:03:34.956Z,102239.86
2019-04-14T09:07:11.735Z,102227.03
2019-04-14T09:10:22.823Z,102237.59
2019-04-14T09:13:30.020Z,102232.48
2019-04-14T09:16:37.270Z,102242.77
2019-04-14T09:19:44.499Z,102240.77
2019-04-14T09:22:51.742Z,102251.02
2019-04-14T09:26:08.548Z,102248.52
2019-04-14T09:29:15.743Z,102254.06
2019-04-14T09:32:32.700Z,102245.98
2019-04-14T09:35:49.331Z,102252.58
2019-04-14T09:39:07.963Z,102251.88
2019-04-14T09:42:15.230Z,102253.95
2019-04-14T09:45:22.459Z,102258.59
2019-04-14T09:48:29.755Z,102259.30
2019-04-14T09:51:36.997Z,102265.30
2019-04-14T09:54:44.228Z,102250.45
2019-04-14T09:57:51.496Z,102261.52
2019-04-14T10:00:58.735Z,102258.98
2019-04-14T10:04:04.283Z,102264.94
2019-04-14T10:07:11.589Z,102263.92
2019-04-14T10:10:18.938Z,102266.86
2019-04-14T10:13:26.319Z,102260.47
2019-04-14T10:16:33.631Z,102266.44
2019-04-14T10:19:50.337Z,102268.98
2019-04-14T10:22:56.597Z,102276.20
2019-04-14T10:26:04.451Z,102272.34
2019-04-14T10:29:11.762Z,102272.30
2019-04-14T10:32:18.887Z,102277.84
2019-04-14T10:35:26.093Z,102279.49
2019-04-14T10:38:33.211Z,102274.47
2019-04-14T10:41:40.426Z,102274.69
2019-04-14T10:44:47.675Z,102275.28
2019-04-14T10:47:55.076Z,102281.81
2019-04-14T10:51:02.386Z,102285.27
2019-04-14T10:54:09.510Z,102283.05
2019-04-14T10:57:27.020Z,102281.68
2019-04-14T11:00:34.159Z,102280.59
2019-04-14T11:03:41.477Z,102282.73
2019-04-14T11:06:57.777Z,102280.98
2019-04-14T11:11:01.000Z,102277.05
2019-04-14T11:14:17.539Z,102274.84
2019-04-14T11:17:24.744Z,102280.25
2019-04-14T11:20:32.080Z,102282.46
2019-04-14T11:23:48.751Z,102279.21
2019-04-14T11:26:55.889Z,102283.17
2019-04-14T11:30:03.668Z,102284.12
2019-04-14T11:33:30.971Z,102279.70
2019-04-14T11:36:50.378Z,102289.50
2019-04-14T11:39:57.616Z,102283.58
2019-04-14T11:43:04.928Z,102289.14
2019-04-14T11:46:12.234Z,102283.12
2019-04-14T11:49:18.338Z,102289.84
2019-04-14T11:52:25.745Z,102289.53
2019-04-14T11:55:42.511Z,102289.89
2019-04-14T11:58:59.315Z,102287.23
2019-04-14T12:02:23.780Z,102284.23
2019-04-14T12:05:45.769Z,102279.99
2019-04-14T12:09:41.740Z,102285.91
2019-04-14T12:12:48.976Z,102293.05
2019-04-14T12:15:55.739Z,102295.36
2019-04-14T12:19:02.964Z,102289.48
2019-04-14T12:22:10.105Z,102290.30
2019-04-14T12:25:17.331Z,102303.17
2019-04-14T12:28:24.463Z,102296.33
2019-04-14T12:31:32.852Z,102300.73
2019-04-14T12:34:49.503Z,102299.56
2019-04-14T12:38:06.763Z,102296.44
2019-04-14T12:41:17.742Z,102313.55
2019-04-14T12:44:39.204Z,102306.62
2019-04-14T12:48:37.503Z,102306.80
2019-04-14T12:52:02.441Z,102291.53
2019-04-14T12:55:09.819Z,102297.99
2019-04-14T12:58:17.905Z,102296.02
2019-04-14T13:02:12.303Z,102285.25
2019-04-14T13:05:19.473Z,102295.06
2019-04-14T13:08:26.797Z,102291.30
2019-04-14T13:11:34.026Z,102290.89
2019-04-14T13:14:41.432Z,102290.91
2019-04-14T13:17:48.693Z,102291.00
2019-04-14T13:20:55.923Z,102290.56
2019-04-14T13:24:03.161Z,102282.57
2019-04-14T13:27:10.483Z,102284.96
2019-04-14T13:30:19.747Z,102288.25
2019-04-14T13:33:41.461Z,102286.50
2019-04-14T13:36:48.788Z,102279.98
2019-04-14T13:40:06.312Z,102279.18
2019-04-14T13:43:13.931Z,102284.65
2019-04-14T13:46:21.149Z,102283.76
2019-04-14T13:49:28.439Z,102284.52
2019-04-14T13:52:45.998Z,102277.72
2019-04-14T13:55:44.718Z,102282.60
2019-04-14T13:58:52.414Z,102284.45
2019-04-14T14:01:59.839Z,102274.08
2019-04-14T14:05:07.319Z,102274.45
2019-04-14T14:08:14.643Z,102272.71
2019-04-14T14:11:28.679Z,102273.40
2019-04-14T14:14:54.907Z,102274.75
2019-04-14T14:18:13.462Z,102280.61
2019-04-14T14:21:45.561Z,102278.31
2019-04-14T14:25:14.475Z,102271.44
2019-04-14T14:28:44.982Z,102269.02
2019-04-14T14:32:02.836Z,102272.84
2019-04-14T14:35:10.067Z,102274.61
2019-04-14T14:38:17.197Z,102277.34
2019-04-14T14:41:24.423Z,102280.30
2019-04-14T14:44:45.446Z,102276.90
2019-04-14T14:48:03.491Z,102279.14
2019-04-14T14:52:05.308Z,102276.03
2019-04-14T14:55:12.567Z,102281.95
2019-04-14T14:58:19.708Z,102283.73
2019-04-14T15:01:26.940Z,102280.80
2019-04-14T15:04:34.249Z,102279.03
2019-04-14T15:07:41.455Z,102277.77
2019-04-14T15:10:48.894Z,102276.55
2019-04-14T15:13:56.031Z,102282.18
2019-04-14T15:17:03.371Z,102281.59
2019-04-14T15:20:10.688Z,102280.42
2019-04-14T15:23:24.704Z,102276.94
2019-04-14T15:26:27.865Z,102261.06
2019-04-14T15:29:34.987Z,102271.89
2019-04-14T15:32:42.331Z,102269.31
2019-04-14T15:35:49.982Z,102274.34
2019-04-14T15:38:57.356Z,102274.00
2019-04-14T15:42:04.743Z,102280.31
2019-04-14T15:45:14.290Z,102285.88
2019-04-14T15:48:20.169Z,102269.45
2019-04-14T15:51:27.486Z,102274.13
2019-04-14T15:54:34.742Z,102278.16
2019-04-14T15:57:59.836Z,102281.39
2019-04-14T16:01:35.055Z,102286.58
2019-04-14T16:04:49.085Z,102284.05
2019-04-14T16:08:15.296Z,102286.23
2019-04-14T16:11:41.527Z,102288.22
2019-04-14T16:15:06.369Z,102293.10
2019-04-14T16:18:34.907Z,102294.06
2019-04-14T16:21:42.314Z,102288.47
2019-04-14T16:24:49.703Z,102295.36
2019-04-14T16:28:13.945Z,102280.50
2019-04-14T16:31:34.215Z,102290.70
2019-04-14T16:34:51.034Z,102291.91
2019-04-14T16:37:58.337Z,102291.45
2019-04-14T16:41:05.639Z,102291.05
2019-04-14T16:44:22.340Z,102293.15
2019-04-14T16:47:39.063Z,102293.21
2019-04-14T16:50:46.375Z,102291.23
2019-04-14T16:54:09.585Z,102292.02
2019-04-14T16:57:51.912Z,102292.93
2019-04-14T17:01:40.048Z,102298.48
2019-04-14T17:04:47.199Z,102302.72
2019-04-14T17:07:54.470Z,102307.54
2019-04-14T17:11:01.795Z,102298.99
2019-04-14T17:14:37.199Z,102305.95
2019-04-14T17:18:02.116Z,102298.70
2019-04-14T17:21:34.755Z,102302.00
2019-04-14T17:25:00.503Z,102305.02
2019-04-14T17:28:44.060Z,102305.84
2019-04-14T17:32:04.491Z,102313.62
2019-04-14T17:35:42.362Z,102318.73
2019-04-14T17:39:11.163Z,102323.08
2019-04-14T17:42:25.264Z,102322.17
2019-04-14T17:46:48.479Z,102315.45
2019-04-14T17:50:23.484Z,102320.07
2019-04-14T17:53:54.635Z,102320.59
2019-04-14T17:57:20.863Z,102322.72
2019-04-14T18:00:50.313Z,102329.55
2019-04-14T18:04:21.467Z,102325.27
2019-04-14T18:07:34.434Z,102331.72
2019-04-14T18:11:14.037Z,102339.38
2019-04-14T18:14:40.379Z,102338.17
2019-04-14T18:18:22.107Z,102346.56
2019-04-14T18:21:29.427Z,102352.58
2019-04-14T18:24:42.733Z,102352.99
2019-04-14T18:27:58.311Z,102361.52
2019-04-14T18:31:24.622Z,102367.08
2019-04-14T18:34:42.953Z,102369.20
2019-04-14T18:38:11.967Z,102379.41
2019-04-14T18:41:43.005Z,102381.97
2019-04-14T18:45:21.399Z,102382.77
2019-04-14T18:48:37.493Z,102390.06
2019-04-14T18:52:10.992Z,102384.03
2019-04-14T18:55:36.052Z,102387.47
2019-04-14T18:59:02.187Z,102399.00
2019-04-14T19:02:11.323Z,102399.84
2019-04-14T19:05:18.559Z,102401.97
2019-04-14T19:08:25.879Z,102408.03
2019-04-14T19:12:17.193Z,102399.00
2019-04-14T19:15:31.851Z,102406.20
2019-04-14T19:18:45.075Z,102418.53
2019-04-14T19:22:06.729Z,102415.48
2019-04-14T19:25:23.403Z,102415.56
2019-04-14T19:28:40.295Z,102416.00
2019-04-14T19:31:57.015Z,102429.19
2019-04-14T19:35:13.788Z,102421.91
2019-04-14T19:38:30.540Z,102429.64
2019-04-14T19:41:47.383Z,102431.33
2019-04-14T19:45:04.451Z,102441.53
2019-04-14T19:48:20.951Z,102449.34
2019-04-14T19:51:28.293Z,102444.17
2019-04-14T19:54:44.890Z,102443.70
2019-04-14T19:57:52.107Z,102445.81
2019-04-14T20:00:59.625Z,102445.77
2019-04-14T20:04:26.167Z,102450.47
2019-04-14T20:07:42.886Z,102451.77
2019-04-14T20:10:50.115Z,102449.64
2019-04-14T20:13:57.383Z,102453.09
2019-04-14T20:17:26.459Z,102461.11
2019-04-14T20:20:52.663Z,102453.02
2019-04-14T20:24:05.832Z,102460.28
2019-04-14T20:27:29.127Z,102453.09
2019-04-14T20:30:40.118Z,102453.53
2019-04-14T20:33:47.351Z,102457.30
2019-04-14T20:36:54.597Z,102455.18
2019-04-14T20:40:01.949Z,102462.83
2019-04-14T20:43:09.228Z,102459.01
2019-04-14T20:46:16.492Z,102464.20
2019-04-14T20:49:23.626Z,102453.50
2019-04-14T20:52:30.951Z,102455.24
2019-04-14T20:55:47.947Z,102456.45
2019-04-14T20:59:04.595Z,102460.31
2019-04-14T21:02:46.505Z,102461.09
2019-04-14T21:06:06.932Z,102462.00
2019-04-14T21:09:18.119Z,102469.78
2019-04-14T21:12:47.171Z,102471.87
2019-04-14T21:16:27.779Z,102470.10
2019-04-14T21:19:47.305Z,102462.48
2019-04-14T21:22:58.972Z,102464.61
2019-04-14T21:26:10.410Z,102458.22
2019-04-14T21:29:43.179Z,102463.39
2019-04-14T21:32:56.519Z,102461.67
2019-04-14T21:36:25.415Z,102457.37
2019-04-14T21:39:51.595Z,102462.07
2019-04-14T21:42:58.834Z,102461.28
2019-04-14T21:46:06.213Z,102466.82
2019-04-14T21:49:13.800Z,102463.45
2019-04-14T21:52:35.387Z,102463.38
2019-04-14T21:55:52.093Z,102473.20
2019-04-14T21:59:15.295Z,102468.07
2019-04-14T22:02:57.583Z,102472.34
2019-04-14T22:06:28.524Z,102482.14
2019-04-14T22:09:36.447Z,102480.53
2019-04-14T22:12:43.822Z,102486.02
2019-04-14T22:15:51.128Z,102492.86
2019-04-14T22:18:58.835Z,102488.22
2019-04-14T22:22:06.209Z,102490.72
2019-04-14T22:25:12.083Z,102494.19
2019-04-14T22:28:28.823Z,102491.56
2019-04-14T22:32:04.874Z,102500.53
2019-04-14T22:35:21.814Z,102507.38
2019-04-14T22:38:38.428Z,102510.33
2019-04-14T22:41:45.575Z,102510.80
2019-04-14T22:44:52.845Z,102510.81
2019-04-14T22:47:59.964Z,102517.59
2019-04-14T22:51:07.299Z,102518.92
2019-04-14T22:54:23.943Z,102518.03
2019-04-14T22:57:31.103Z,102522.73
2019-04-14T23:01:03.039Z,102523.22
2019-04-14T23:04:47.691Z,102522.29
2019-04-14T23:08:29.028Z,102522.34
2019-04-14T23:11:54.834Z,102524.09
2019-04-14T23:15:24.069Z,102526.98
2019-04-14T23:18:41.463Z,102526.59
2019-04-14T23:22:00.410Z,102523.62
2019-04-14T23:25:24.699Z,102519.80
2019-04-14T23:28:41.574Z,102521.08
2019-04-14T23:31:48.863Z,102524.94
2019-04-14T23:34:56.009Z,102528.31
2019-04-14T23:38:03.311Z,102531.73
2019-04-14T23:41:10.451Z,102528.75
2019-04-14T23:44:27.255Z,102526.61
2019-04-14T23:47:43.986Z,102521.52
2019-04-14T23:50:51.222Z,102524.92
2019-04-14T23:53:58.450Z,102523.66
2019-04-14T23:57:15.323Z,102526.20
